DW4338 Bergen NO current weather conditions

sailwx.info

Wind from 100 at 11 knots gusting 18

Air temperature 8.9° C
Dewpoint 6.5° C

Last reported at 2014-Sep-23 03:53 UTC.
Time now 2014-Sep-23 04:27 UTC

Location: N 60°31' E 004°54'.
View on Google Maps.

See reports from other nearby stations

  
Tides and Currents Weather Stations Pressure Air Temp Water Temp Dewpoint Dewpoint Depression Visibility Wind Speed Wind Dir Waves Ship Positions
date/time (UTC)wind fromknots sea level pressurealtimeterstation pressurevisibilityair tempwater tempwave heightnotes
2014-Sep-23 03:53 100 11 gusting 18 8.9
2014-Sep-23 03:37 096 10 gusting 15 8.9
2014-Sep-23 03:21 098 7 gusting 13 8.9
2014-Sep-23 03:07 099 8 gusting 13 8.9
2014-Sep-23 02:52 103 8 gusting 14 8.9
2014-Sep-23 02:36 098 9 gusting 13 8.9
2014-Sep-23 02:22 103 7 gusting 16 8.9
2014-Sep-23 02:08 107 9 gusting 19 8.9
2014-Sep-23 01:51 092 6 gusting 11 8.9
2014-Sep-23 01:36 092 8 gusting 13 8.9
2014-Sep-23 01:21 092 8 gusting 16 8.9
2014-Sep-23 01:05 065 8 gusting 13 8.9
2014-Sep-23 00:50 061 6 gusting 11 8.9
2014-Sep-23 00:35 059 7 gusting 13 8.9
2014-Sep-23 00:19 059 5 gusting 9 8.9
2014-Sep-23 00:04 059 6 gusting 11 8.9
2014-Sep-22 23:49 049 6 gusting 12 8.9
2014-Sep-22 23:34 345 6 gusting 8 8.9
2014-Sep-22 23:20 345 3 gusting 5 8.9
2014-Sep-22 23:04 345 1 gusting 5 8.9
2014-Sep-22 22:49 345 3 gusting 6 9.4
2014-Sep-22 22:33 345 2 gusting 4 8.9
2014-Sep-22 22:19 345 8.9
2014-Sep-22 22:04 345 2 gusting 4 8.9
2014-Sep-22 21:49 345 8.9
2014-Sep-22 21:33 345 8.9
2014-Sep-22 21:18 345 8.9
2014-Sep-22 21:02 345 8.3
2014-Sep-22 20:47 345 8.9
2014-Sep-22 20:32 345 8.9
2014-Sep-22 20:17 345 8.9
2014-Sep-22 20:02 345 8.9
2014-Sep-22 19:47 345 4 gusting 9 8.9
2014-Sep-22 19:32 345 4 gusting 10 9.4
2014-Sep-22 19:17 345 13 gusting 18 9.4
2014-Sep-22 19:01 345 11 gusting 16 9.4
2014-Sep-22 18:47 345 2 gusting 13 9.4
2014-Sep-22 18:32 345 2 gusting 13 9.4
2014-Sep-22 18:15 345 9.4
2014-Sep-22 18:01 345 10.0
2014-Sep-22 17:46 345 10.6
2014-Sep-22 17:31 345 9 gusting 14 10.6
2014-Sep-22 17:15 345 10 gusting 17 11.1
2014-Sep-22 17:01 345 3 gusting 10 10.6
2014-Sep-22 16:30 344 6 gusting 11 10.6
2014-Sep-22 16:15 344 6 gusting 11 10.6
2014-Sep-22 15:59 344 7 gusting 13 10.6
2014-Sep-22 15:44 344 6 gusting 11 10.6
2014-Sep-22 15:29 344 4 gusting 14 11.1
2014-Sep-22 15:14 344 2 gusting 6 11.1
2014-Sep-22 14:58 344 11.1
2014-Sep-22 14:44 344 0 gusting 16 11.1
2014-Sep-22 14:29 344 2 gusting 19 11.1
2014-Sep-22 14:14 343 10 gusting 26 11.1
2014-Sep-22 13:59 347 6 gusting 18 11.7
2014-Sep-22 13:44 346 11 gusting 19 11.7
2014-Sep-22 13:28 344 14 gusting 26 11.7
2014-Sep-22 13:13 346 13 gusting 25 11.7
2014-Sep-22 12:58 343 15 gusting 26 12.2
2014-Sep-22 12:43 344 8 gusting 22 12.2
2014-Sep-22 12:28 329 8 gusting 21 12.2
2014-Sep-22 12:13 360 5 gusting 11 12.8
2014-Sep-22 11:57 005 7 gusting 19 12.8
2014-Sep-22 11:41 020 4 gusting 14 11.7
2014-Sep-22 11:26 020 6 gusting 17 11.7
2014-Sep-22 11:12 047 1 gusting 10 11.7
2014-Sep-22 10:57 059 2 gusting 13 11.7
2014-Sep-22 10:41 345 4 gusting 12 11.7
2014-Sep-22 10:26 068 4 gusting 12 11.7
2014-Sep-22 10:10 344 2 gusting 15 11.1
2014-Sep-22 09:55 344 18 gusting 26 11.1
2014-Sep-22 09:40 355 4 gusting 23 11.1
2014-Sep-22 09:25 005 5 gusting 11 11.1
2014-Sep-22 09:10 072 3 gusting 11 11.1
2014-Sep-22 08:55 080 5 gusting 13 11.1
2014-Sep-22 08:39 092 4 gusting 14 11.1
2014-Sep-22 08:25 021 5 gusting 14 10.6
2014-Sep-22 08:09 350 4 gusting 22 10.0
2014-Sep-22 07:54 360 6 gusting 18 10.0
2014-Sep-22 07:40 343 8 gusting 22 10.0
2014-Sep-22 07:24 351 6 gusting 21 9.4
2014-Sep-22 07:09 336 11 gusting 26 9.4
2014-Sep-22 06:54 337 6 gusting 25 8.9
2014-Sep-22 06:39 355 10 gusting 25 8.9
2014-Sep-22 06:24 053 8 gusting 22 8.9
2014-Sep-22 06:09 332 5 gusting 26 8.3
2014-Sep-22 05:54 005 6 gusting 27 8.3
2014-Sep-22 05:37 336 7 gusting 26 8.3
2014-Sep-22 05:22 093 4 gusting 12 8.3
2014-Sep-22 05:08 355 6 gusting 16 8.3
2014-Sep-22 04:52 188 6 gusting 26 8.3
2014-Sep-22 04:38 337 8 gusting 28 8.9
2014-Sep-22 04:23 339 8 gusting 30 8.9
2014-Sep-22 04:06 174 9 gusting 28 8.9
2014-Sep-22 03:51 344 10 gusting 33 8.9
2014-Sep-22 03:37 345 11 gusting 33 8.9
2014-Sep-22 03:21 342 16 gusting 37 8.9
2014-Sep-22 03:07 337 13 gusting 31 8.9
2014-Sep-22 02:52 348 13 gusting 27 8.9
2014-Sep-22 02:35 341 11 gusting 21 8.9
2014-Sep-22 02:21 344 8 gusting 23 8.3
2014-Sep-22 02:05 355 5 gusting 18 8.3
2014-Sep-22 01:51 355 3 gusting 19 8.3
2014-Sep-22 01:36 322 9 gusting 37 8.3
2014-Sep-22 01:21 336 8 gusting 27 8.3
2014-Sep-22 01:05 142 4 gusting 19 8.9
2014-Sep-22 00:50 328 6 gusting 26 8.9
2014-Sep-22 00:35 351 6 gusting 24 8.9
2014-Sep-22 00:19 342 4 gusting 24 8.9
2014-Sep-22 00:04 320 9 gusting 26 8.9
2014-Sep-21 23:50 327 8 gusting 23 8.9
2014-Sep-21 23:33 355 10 gusting 24 8.9
2014-Sep-21 23:19 032 8 gusting 39 9.4
2014-Sep-21 23:04 336 11 gusting 24 9.4
2014-Sep-21 22:49 355 12 gusting 31 9.4
2014-Sep-21 22:34 360 17 gusting 33 9.4
2014-Sep-21 22:18 343 19 gusting 49 9.4
2014-Sep-21 22:03 340 16 gusting 29 9.4
2014-Sep-21 21:48 351 14 gusting 41 9.4
2014-Sep-21 21:32 338 18 gusting 37 9.4
2014-Sep-21 21:18 331 18 gusting 32 10.0
2014-Sep-21 21:03 346 13 gusting 38 10.0
2014-Sep-21 20:47 344 15 gusting 33 10.0
2014-Sep-21 20:31 080 13 gusting 26 10.0
2014-Sep-21 20:16 331 10 gusting 32 10.0
2014-Sep-21 20:02 360 13 gusting 36 10.0
2014-Sep-21 19:47 325 26 gusting 53 10.0
2014-Sep-21 19:32 344 16 gusting 34 10.0
2014-Sep-21 19:16 355 19 gusting 37 10.0
2014-Sep-21 19:00 341 14 gusting 41 10.0
2014-Sep-21 18:46 035 16 gusting 40 10.0
2014-Sep-21 18:31 355 14 gusting 33 10.0
2014-Sep-21 18:15 340 20 gusting 52 10.0
2014-Sep-21 18:00 342 19 gusting 42 10.0
2014-Sep-21 17:45 355 20 gusting 48 10.0
2014-Sep-21 17:30 325 21 gusting 49 10.0
2014-Sep-21 17:14 338 19 gusting 65 10.0
2014-Sep-21 17:00 337 24 gusting 57 10.6
2014-Sep-21 16:45 343 24 gusting 40 11.1
2014-Sep-21 16:30 350 27 gusting 51 10.6
2014-Sep-21 16:16 334 19 gusting 54 11.1
2014-Sep-21 15:59 329 30 gusting 59 11.1
2014-Sep-21 15:44 350 30 gusting 61 11.7
2014-Sep-21 15:29 346 28 gusting 59 11.7
2014-Sep-21 15:14 346 33 gusting 60 11.7
2014-Sep-21 14:59 346 22 gusting 52 11.7
2014-Sep-21 14:43 334 31 gusting 53 11.7
2014-Sep-21 14:27 335 27 gusting 50 12.2
2014-Sep-21 14:13 317 23 gusting 45 11.7
2014-Sep-21 13:59 333 33 gusting 57 11.7
2014-Sep-21 13:42 345 35 gusting 72 11.7
2014-Sep-21 13:28 340 33 gusting 59 12.2
2014-Sep-21 13:12 328 27 gusting 47 11.1
2014-Sep-21 12:57 355 33 gusting 58 11.7
2014-Sep-21 12:42 338 28 gusting 53 12.2
2014-Sep-21 12:26 346 24 gusting 50 12.8
2014-Sep-21 12:12 334 33 gusting 57 12.8
2014-Sep-21 11:56 323 34 gusting 70 12.8
2014-Sep-21 11:41 331 33 gusting 53 12.8
2014-Sep-21 11:26 329 23 gusting 46 12.8
2014-Sep-21 11:10 328 31 gusting 62 12.2
2014-Sep-21 10:55 329 32 gusting 55 12.2
2014-Sep-21 10:41 336 29 gusting 53 12.2
2014-Sep-21 10:26 339 27 gusting 53 12.2
2014-Sep-21 10:11 346 33 gusting 57 12.2
2014-Sep-21 09:55 331 29 gusting 59 12.2
2014-Sep-21 09:39 338 22 gusting 46 12.2
2014-Sep-21 09:25 325 35 gusting 66 12.2
2014-Sep-21 09:10 319 31 gusting 59 12.2
2014-Sep-21 08:55 335 30 gusting 54 11.7
2014-Sep-21 08:40 346 31 gusting 50 11.7
2014-Sep-21 08:24 336 31 gusting 62 11.7
2014-Sep-21 08:09 343 28 gusting 61 11.7
2014-Sep-21 07:54 333 31 gusting 50 11.7
2014-Sep-21 07:39 333 33 gusting 53 11.7
2014-Sep-21 07:24 355 32 gusting 50 11.7
2014-Sep-21 07:07 331 20 gusting 49 11.7
2014-Sep-21 06:52 348 26 gusting 47 11.7
2014-Sep-21 06:38 344 17 gusting 36 11.1
2014-Sep-21 06:23 325 18 gusting 48 11.1
2014-Sep-21 06:08 325 19 gusting 42 11.1
2014-Sep-21 05:52 325 18 gusting 36 10.6
2014-Sep-21 05:37 355 19 gusting 38 10.6
2014-Sep-21 05:22 348 13 gusting 33 10.6
2014-Sep-21 05:06 336 9 gusting 37 10.6
2014-Sep-21 04:52 348 12 gusting 22 10.6
2014-Sep-21 04:36 360 7 gusting 13 10.6
2014-Sep-21 04:22 360 4 gusting 16 10.6
2014-Sep-21 04:05 091 1 gusting 6 10.6